Time;durP1;ratioP1;P1;durP2;ratioP2;P2;SDS_P1;SDS_P2;PMS_P1;PMS_P2;Temp;Humidity;BMP_temperature;BMP_pressure;BME280_temperature;BME280_humidity;BME280_pressure;Samples;Min_cycle;Max_cycle;Signal;HPM_P1;HPM_P2
2023/05/05 00:01:31;;;;;;;2.97;1.70;;;;;;;4.86;47.30;101889.44;5007617;28;20084;-75
2023/05/05 00:03:57;;;;;;;0.45;0.45;;;;;;;4.88;48.01;101894.66;5015099;23;20054;-60
2023/05/05 00:06:23;;;;;;;0.50;0.50;;;;;;;4.82;48.27;101893.59;5013301;23;20118;-74
2023/05/05 00:08:48;;;;;;;0.40;0.40;;;;;;;4.81;48.47;101901.25;4989752;28;20030;-74
2023/05/05 00:11:13;;;;;;;0.50;0.50;;;;;;;4.75;48.89;101885.56;5007386;28;20041;-73
2023/05/05 00:13:39;;;;;;;0.50;0.50;;;;;;;4.70;48.62;101898.25;5006972;28;20033;-73
2023/05/05 00:16:04;;;;;;;0.50;0.50;;;;;;;4.75;49.40;101899.31;5018287;23;20006;-60
2023/05/05 00:18:32;;;;;;;0.50;0.50;;;;;;;4.84;49.58;101899.69;5005101;28;20120;-61
2023/05/05 00:20:58;;;;;;;0.50;0.50;;;;;;;4.91;50.40;101894.78;5011061;23;20101;-73
2023/05/05 00:23:23;;;;;;;0.50;0.50;;;;;;;4.73;50.56;101900.94;5006901;28;20022;-74
2023/05/05 00:25:48;;;;;;;0.50;0.50;;;;;;;4.69;51.08;101899.97;5007005;28;20041;-74
2023/05/05 00:28:14;;;;;;;0.50;0.50;;;;;;;4.65;51.26;101892.94;5006941;28;20041;-75
2023/05/05 00:30:39;;;;;;;0.50;0.50;;;;;;;4.65;51.49;101900.66;5005567;28;20029;-73
2023/05/05 00:33:05;;;;;;;0.50;0.50;;;;;;;4.79;51.77;101905.47;5005420;28;20094;-72
2023/05/05 00:35:30;;;;;;;0.50;0.50;;;;;;;4.67;51.49;101901.59;5006845;28;20018;-73
2023/05/05 00:37:56;;;;;;;0.50;0.50;;;;;;;4.82;52.16;101895.31;5005690;28;20026;-76
2023/05/05 00:40:23;;;;;;;0.50;0.50;;;;;;;4.73;52.09;101897.53;5005847;28;20391;-76
2023/05/05 00:45:30;;;;;;;0.60;0.60;;;;;;;4.90;52.52;101904.22;4985597;28;20055;-60
2023/05/05 00:47:58;;;;;;;0.43;0.43;;;;;;;4.71;52.63;101894.88;4987245;28;20093;-62
2023/05/05 00:50:29;;;;;;;0.47;0.47;;;;;;;4.77;52.81;101912.25;4987350;28;20019;-61
2023/05/05 00:53:02;;;;;;;0.50;0.50;;;;;;;4.79;53.09;101910.63;4986961;28;20391;-61
2023/05/05 00:55:29;;;;;;;0.40;0.40;;;;;;;4.80;53.12;101904.66;5015230;23;20167;-61
2023/05/05 00:57:56;;;;;;;0.50;0.50;;;;;;;4.93;53.37;101896.63;5007223;23;20486;-74
2023/05/05 01:00:21;;;;;;;0.50;0.50;;;;;;;4.72;53.37;101886.34;5013939;23;20062;-61
2023/05/05 01:02:47;;;;;;;0.50;0.50;;;;;;;4.87;53.84;101908.34;5005888;28;20046;-62
2023/05/05 01:08:06;;;;;;;0.50;0.50;;;;;;;5.01;54.11;101912.34;5011754;23;20454;-75
2023/05/05 01:10:39;;;;;;;0.50;0.50;;;;;;;4.95;54.06;101912.97;5012494;23;20074;-60
2023/05/05 01:13:10;;;;;;;0.50;0.50;;;;;;;4.95;54.43;101912.13;5006160;28;20091;-61
2023/05/05 01:15:44;;;;;;;0.60;0.60;;;;;;;4.89;54.71;101891.28;5012251;23;20105;-75
2023/05/05 01:18:29;;;;;;;0.50;0.50;;;;;;;5.06;54.47;101905.66;5005805;28;20065;-74
2023/05/05 01:21:10;;;;;;;0.50;0.50;;;;;;;5.10;54.86;101900.66;5006147;28;20073;-75
2023/05/05 01:23:38;;;;;;;0.50;0.50;;;;;;;5.46;53.82;101905.44;5005989;28;20023;-75
2023/05/05 01:26:19;;;;;;;0.50;0.50;;;;;;;5.00;54.67;101912.28;4988536;28;20023;-75
2023/05/05 01:29:00;;;;;;;0.50;0.50;;;;;;;5.07;54.63;101917.72;4988005;28;20027;-77
2023/05/05 01:32:01;;;;;;;0.60;0.60;;;;;;;5.00;54.80;101917.44;4988459;28;20185;-75
2023/05/05 01:34:33;;;;;;;0.80;0.80;;;;;;;4.77;55.12;101913.13;4982576;28;20081;-74
2023/05/05 01:37:10;;;;;;;0.50;0.50;;;;;;;4.77;55.38;101905.41;4994613;23;20495;-76
2023/05/05 01:39:37;;;;;;;0.50;0.50;;;;;;;4.93;55.31;101919.78;5013149;23;20043;-65
2023/05/05 01:42:09;;;;;;;0.40;0.40;;;;;;;5.02;55.27;101918.34;5010393;23;20046;-75
2023/05/05 01:44:37;;;;;;;0.50;0.50;;;;;;;4.78;55.90;101914.88;4988130;28;20022;-74
2023/05/05 01:47:03;;;;;;;0.50;0.50;;;;;;;4.70;55.73;101912.00;5005887;28;20030;-76
2023/05/05 01:49:30;;;;;;;0.50;0.50;;;;;;;4.61;55.91;101916.78;5024625;23;20069;-61
2023/05/05 01:51:57;;;;;;;0.50;0.50;;;;;;;4.90;55.64;101923.91;5005656;28;20041;-61
2023/05/05 01:54:24;;;;;;;0.40;0.40;;;;;;;4.99;55.75;101931.09;5005354;28;20049;-60
2023/05/05 01:56:52;;;;;;;0.50;0.50;;;;;;;5.03;56.08;101925.28;5005188;28;20038;-62
2023/05/05 01:59:20;;;;;;;0.50;0.50;;;;;;;4.68;56.57;101923.91;5005555;28;20018;-61
2023/05/05 02:01:47;;;;;;;0.40;0.40;;;;;;;4.83;56.84;101928.81;5005596;28;20022;-61
2023/05/05 02:04:16;;;;;;;0.40;0.40;;;;;;;5.01;56.35;101924.34;5005428;28;20029;-61
2023/05/05 02:06:44;;;;;;;0.47;0.47;;;;;;;4.67;57.08;101932.47;4988326;28;20080;-61
2023/05/05 02:09:11;;;;;;;0.50;0.50;;;;;;;4.75;57.46;101931.88;5012177;23;20108;-75
2023/05/05 02:11:37;;;;;;;0.40;0.40;;;;;;;4.83;56.96;101936.53;5005274;28;20022;-75
2023/05/05 02:14:05;;;;;;;0.40;0.40;;;;;;;4.78;57.33;101935.47;5005210;28;20117;-74
2023/05/05 02:16:32;;;;;;;0.50;0.50;;;;;;;4.46;58.19;101941.06;5046765;23;20104;-61
2023/05/05 02:19:03;;;;;;;0.50;0.50;;;;;;;4.34;58.73;101937.97;5005510;28;20097;-62
2023/05/05 02:21:28;;;;;;;0.50;0.50;;;;;;;4.36;58.62;101933.75;5011639;23;20054;-76
2023/05/05 02:23:54;;;;;;;0.40;0.40;;;;;;;4.24;58.81;101933.25;4987635;28;20034;-76
2023/05/05 02:26:21;;;;;;;0.50;0.50;;;;;;;4.19;58.85;101944.22;5005327;28;20031;-73
2023/05/05 02:28:55;;;;;;;0.50;0.50;;;;;;;4.49;58.44;101924.84;5004991;28;20058;-77
2023/05/05 02:31:25;;;;;;;0.40;0.40;;;;;;;4.39;58.66;101931.34;5008586;28;20052;-75
2023/05/05 02:33:54;;;;;;;0.50;0.50;;;;;;;4.14;59.01;101939.69;5009182;28;20037;-74
2023/05/05 02:36:22;;;;;;;0.40;0.40;;;;;;;4.20;59.13;101935.69;5009181;28;20027;-75
2023/05/05 02:38:54;;;;;;;0.40;0.40;;;;;;;4.26;58.98;101936.75;4991990;28;20022;-74
2023/05/05 02:41:22;;;;;;;0.60;0.60;;;;;;;4.05;59.16;101930.78;5016329;23;20046;-61
2023/05/05 02:43:49;;;;;;;0.45;0.45;;;;;;;4.28;58.88;101938.56;5015576;23;20097;-75
2023/05/05 02:46:15;;;;;;;0.50;0.50;;;;;;;4.02;59.39;101946.06;5016251;23;20065;-65
2023/05/05 02:48:41;;;;;;;0.50;0.50;;;;;;;3.94;59.56;101937.13;5018454;23;20197;-74
2023/05/05 02:51:06;;;;;;;0.45;0.45;;;;;;;4.13;59.38;101938.81;5009085;28;20057;-75
2023/05/05 02:53:33;;;;;;;0.60;0.60;;;;;;;4.16;59.06;101936.38;4991191;28;20270;-76
2023/05/05 02:56:26;;;;;;;0.40;0.40;;;;;;;4.03;59.50;101936.63;5019878;23;20030;-61
2023/05/05 02:58:58;;;;;;;0.50;0.50;;;;;;;3.80;59.73;101939.97;4988370;28;20030;-61
2023/05/05 03:01:32;;;;;;;0.50;0.50;;;;;;;3.73;59.72;101935.38;4989170;28;20029;-61
2023/05/05 03:04:06;;;;;;;0.50;0.50;;;;;;;3.99;59.39;101939.91;4989307;28;20097;-61
2023/05/05 03:06:38;;;;;;;0.50;0.50;;;;;;;3.83;59.29;101939.25;4989239;28;20023;-61
2023/05/05 03:09:12;;;;;;;2.38;1.88;;;;;;;3.68;59.62;101940.31;4989041;28;20023;-60
2023/05/05 03:11:43;;;;;;;0.50;0.50;;;;;;;3.65;59.50;101941.84;4997846;23;20094;-74
2023/05/05 03:14:12;;;;;;;0.40;0.40;;;;;;;3.59;59.47;101935.63;5017855;23;20081;-61
2023/05/05 03:16:40;;;;;;;0.40;0.40;;;;;;;3.61;59.54;101943.38;5027977;23;20081;-61
2023/05/05 03:19:10;;;;;;;0.50;0.50;;;;;;;3.59;59.29;101947.59;5008273;28;20030;-61
2023/05/05 03:21:35;;;;;;;0.50;0.50;;;;;;;3.71;58.79;101945.56;5008060;28;20098;-61
2023/05/05 03:24:14;;;;;;;0.43;0.43;;;;;;;3.60;59.24;101946.78;5022125;23;20070;-65
2023/05/05 03:26:40;;;;;;;0.50;0.50;;;;;;;3.72;58.59;101949.91;5016691;23;20030;-76
2023/05/05 03:29:06;;;;;;;4.60;1.40;;;;;;;3.83;58.36;101950.38;5018587;23;21477;-74
2023/05/05 03:31:31;;;;;;;0.40;0.40;;;;;;;3.81;58.39;101949.44;5019522;23;20054;-61
2023/05/05 03:36:29;;;;;;;0.50;0.50;;;;;;;4.25;56.93;101941.00;5011533;23;20053;-74
2023/05/05 03:38:55;;;;;;;0.40;0.40;;;;;;;4.35;56.08;101947.44;5007596;28;20026;-74
2023/05/05 03:44:29;;;;;;;0.60;0.60;;;;;;;4.49;56.83;101948.00;5014900;23;20053;-61
2023/05/05 03:46:55;;;;;;;0.40;0.40;;;;;;;4.65;56.88;101934.09;5014665;23;20055;-75
2023/05/05 03:49:20;;;;;;;0.40;0.40;;;;;;;5.06;56.36;101958.88;5014854;23;20053;-61
2023/05/05 03:51:46;;;;;;;0.50;0.50;;;;;;;5.30;55.35;101965.78;5007697;28;20438;-62
2023/05/05 03:54:12;;;;;;;0.40;0.40;;;;;;;5.43;54.12;101962.00;5015501;23;20026;-74
2023/05/05 03:56:38;;;;;;;0.40;0.40;;;;;;;5.72;52.54;101959.59;5012429;23;20042;-61
2023/05/05 03:59:03;;;;;;;0.50;0.50;;;;;;;5.68;52.07;101958.63;5007650;28;20509;-62
2023/05/05 04:01:30;;;;;;;0.50;0.50;;;;;;;5.63;52.68;101970.47;5007380;28;20034;-61
2023/05/05 04:03:56;;;;;;;0.60;0.60;;;;;;;6.01;50.29;101967.53;5007587;28;20037;-61
2023/05/05 04:06:22;;;;;;;1.80;1.70;;;;;;;5.91;51.34;101968.88;5007718;28;20105;-62
2023/05/05 04:08:47;;;;;;;0.40;0.40;;;;;;;6.16;52.01;101976.66;5007396;28;20037;-63
2023/05/05 04:11:12;;;;;;;0.40;0.40;;;;;;;6.75;49.33;101970.03;5007396;28;20026;-62
2023/05/05 04:13:38;;;;;;;0.40;0.40;;;;;;;6.71;49.20;101976.78;5007190;28;20019;-61
2023/05/05 04:16:03;;;;;;;0.40;0.40;;;;;;;6.92;47.66;101975.72;5026042;23;20059;-64
2023/05/05 04:18:29;;;;;;;0.40;0.40;;;;;;;6.87;47.07;101975.59;5013640;23;20042;-75
2023/05/05 04:20:54;;;;;;;0.40;0.40;;;;;;;6.77;47.66;101976.13;5007150;28;20018;-72
2023/05/05 04:23:20;;;;;;;0.40;0.40;;;;;;;7.04;45.99;101980.44;5007169;28;20022;-76
2023/05/05 04:25:45;;;;;;;2.40;2.30;;;;;;;7.14;46.85;101985.03;5007334;28;20441;-73
2023/05/05 04:28:11;;;;;;;0.40;0.40;;;;;;;7.39;45.86;101972.00;5011223;23;20118;-66
2023/05/05 04:30:36;;;;;;;0.40;0.40;;;;;;;7.44;44.56;101994.56;5007292;28;20046;-66
2023/05/05 04:33:01;;;;;;;0.40;0.40;;;;;;;7.62;43.49;101969.25;5007053;28;20097;-66
2023/05/05 04:35:27;;;;;;;0.40;0.40;;;;;;;7.47;44.12;101974.81;5007109;28;20026;-67
2023/05/05 04:37:53;;;;;;;0.40;0.40;;;;;;;7.71;44.00;101989.31;5006962;28;20041;-65
2023/05/05 04:40:19;;;;;;;0.40;0.40;;;;;;;7.79;43.85;101987.81;5006931;28;20509;-65
2023/05/05 04:42:45;;;;;;;0.75;0.75;;;;;;;7.84;43.37;101990.53;4989248;28;20030;-65
2023/05/05 04:45:10;;;;;;;0.40;0.40;;;;;;;7.96;42.37;101992.56;5007075;28;20374;-65
2023/05/05 04:47:37;;;;;;;0.40;0.40;;;;;;;7.87;42.89;101988.91;5020132;23;20552;-61
2023/05/05 04:50:03;;;;;;;0.40;0.40;;;;;;;7.92;42.76;102000.25;5012257;23;20038;-73
2023/05/05 04:52:28;;;;;;;0.40;0.40;;;;;;;8.00;42.78;101994.44;5018577;23;20182;-73
2023/05/05 04:58:10;;;;;;;0.40;0.40;;;;;;;8.86;39.18;102002.75;5026619;23;20122;-60
2023/05/05 05:00:38;;;;;;;0.40;0.40;;;;;;;8.35;40.05;102001.41;5009816;23;20038;-61
2023/05/05 05:03:03;;;;;;;0.40;0.40;;;;;;;7.85;41.18;102000.03;5013052;23;20109;-72
2023/05/05 05:05:29;;;;;;;0.40;0.40;;;;;;;7.91;41.84;102003.69;5006246;28;20023;-73
2023/05/05 05:07:54;;;;;;;0.50;0.50;;;;;;;8.41;40.35;102007.63;5006394;28;20022;-73
2023/05/05 05:10:20;;;;;;;0.40;0.40;;;;;;;8.26;40.13;101999.47;4988559;28;20038;-75
2023/05/05 05:12:47;;;;;;;0.40;0.40;;;;;;;8.08;40.54;102008.47;4988594;28;20497;-77
2023/05/05 05:15:12;;;;;;;0.40;0.40;;;;;;;8.15;41.29;102009.50;4988577;28;20053;-74
2023/05/05 05:17:38;;;;;;;0.40;0.40;;;;;;;8.36;40.55;102004.03;5006385;28;20030;-74
2023/05/05 05:20:03;;;;;;;0.40;0.40;;;;;;;8.66;40.50;101995.34;4988565;28;20054;-73
2023/05/05 05:22:29;;;;;;;0.40;0.40;;;;;;;8.90;39.86;101991.59;4988610;28;20030;-73
2023/05/05 05:24:55;;;;;;;0.40;0.40;;;;;;;8.87;39.62;101994.13;5005998;28;20501;-76
2023/05/05 05:27:20;;;;;;;0.40;0.40;;;;;;;9.06;39.75;101999.72;5005810;28;20030;-75
2023/05/05 05:29:46;;;;;;;0.40;0.40;;;;;;;9.23;38.59;102013.09;5017886;28;20021;-76
2023/05/05 05:32:11;;;;;;;0.40;0.40;;;;;;;9.08;39.10;102007.53;5016416;23;20082;-61
2023/05/05 05:34:36;;;;;;;0.98;0.95;;;;;;;9.25;40.13;102006.22;5012426;23;20070;-74
2023/05/05 05:37:02;;;;;;;0.40;0.40;;;;;;;9.44;37.72;101990.22;4988379;28;20073;-75
2023/05/05 05:39:27;;;;;;;0.60;0.60;;;;;;;9.64;36.67;101999.31;5005678;28;20074;-76
2023/05/05 05:41:53;;;;;;;0.40;0.40;;;;;;;9.26;38.02;102008.00;5010911;23;20218;-62
2023/05/05 05:44:18;;;;;;;0.50;0.50;;;;;;;9.31;38.38;102005.50;5011882;23;20066;-75
2023/05/05 05:46:43;;;;;;;0.40;0.40;;;;;;;9.82;38.06;102008.31;4999123;23;20487;-64
2023/05/05 05:49:09;;;;;;;0.40;0.40;;;;;;;10.15;37.35;102007.22;5012358;23;20502;-74
2023/05/05 05:51:34;;;;;;;0.50;0.50;;;;;;;10.37;36.37;102009.34;5005526;28;20053;-74
2023/05/05 05:53:59;;;;;;;0.40;0.40;;;;;;;10.57;34.54;102004.56;4988083;28;20046;-75
2023/05/05 05:56:25;;;;;;;0.80;0.80;;;;;;;9.97;35.33;102010.31;5005710;28;20030;-74
2023/05/05 05:58:51;;;;;;;0.40;0.40;;;;;;;9.79;35.92;102016.88;4987725;28;20061;-74
2023/05/05 06:01:18;;;;;;;0.40;0.40;;;;;;;9.94;37.05;102012.84;4987931;28;20022;-73
2023/05/05 06:03:43;;;;;;;0.40;0.40;;;;;;;10.65;35.39;102015.91;4999376;23;20018;-63
2023/05/05 06:06:09;;;;;;;2.05;1.95;;;;;;;10.81;33.42;102011.00;5003969;28;20121;-66
2023/05/05 06:08:34;;;;;;;0.40;0.40;;;;;;;10.64;32.61;102015.91;5005435;28;20026;-62
2023/05/05 06:10:59;;;;;;;0.40;0.40;;;;;;;10.49;32.78;102020.00;5005390;28;20046;-65
2023/05/05 06:13:25;;;;;;;0.40;0.40;;;;;;;10.09;33.10;102021.81;5005234;28;20018;-63
2023/05/05 06:15:50;;;;;;;0.40;0.40;;;;;;;9.89;33.43;102015.38;5005464;28;20022;-63
2023/05/05 06:18:16;;;;;;;0.40;0.40;;;;;;;9.67;34.67;102032.19;5005637;28;20026;-63
2023/05/05 06:20:42;;;;;;;0.40;0.40;;;;;;;9.95;33.86;102026.72;5005432;28;20023;-63
2023/05/05 06:23:07;;;;;;;0.40;0.40;;;;;;;9.94;33.32;102022.34;4995989;23;20046;-73
2023/05/05 06:25:33;;;;;;;0.40;0.40;;;;;;;9.88;33.29;102028.31;5014906;23;20122;-63
2023/05/05 06:30:27;;;;;;;0.30;0.30;;;;;;;9.90;32.80;102043.03;4964330;29;20056;-77
2023/05/05 06:32:53;;;;;;;0.40;0.40;;;;;;;9.77;33.17;102033.28;4966294;29;20050;-74
2023/05/05 06:35:19;;;;;;;0.40;0.40;;;;;;;9.75;33.75;102033.25;4947963;29;20090;-75
2023/05/05 06:37:44;;;;;;;0.40;0.40;;;;;;;10.40;31.84;102017.19;4987035;23;20063;-63
2023/05/05 06:40:10;;;;;;;0.40;0.40;;;;;;;10.29;32.42;102017.88;5019383;23;20133;-61
2023/05/05 06:45:01;;;;;;;0.40;0.40;;;;;;;10.59;31.53;102023.59;5018740;23;20050;-77
2023/05/05 06:47:26;;;;;;;0.40;0.40;;;;;;;10.24;31.83;102026.44;5020090;23;20042;-63
2023/05/05 06:49:51;;;;;;;0.40;0.40;;;;;;;10.19;32.29;102038.44;5012289;23;20154;-75
2023/05/05 06:52:17;;;;;;;0.40;0.40;;;;;;;10.28;32.36;102033.41;4987776;28;20427;-73
2023/05/05 06:54:42;;;;;;;0.40;0.40;;;;;;;10.61;31.86;102015.84;5024645;23;20122;-63
2023/05/05 06:57:08;;;;;;;3.63;3.33;;;;;;;10.36;31.52;102034.44;5018788;23;20090;-60
2023/05/05 06:59:33;;;;;;;0.40;0.40;;;;;;;10.64;30.43;102016.78;5005273;28;20413;-61
2023/05/05 07:01:58;;;;;;;0.65;0.65;;;;;;;10.78;29.21;102013.56;5005278;28;20037;-60
2023/05/05 07:04:24;;;;;;;0.40;0.40;;;;;;;10.22;30.42;102022.91;5005305;28;20029;-61
2023/05/05 07:06:49;;;;;;;0.40;0.40;;;;;;;9.95;32.06;102027.59;5019207;23;20104;-60
2023/05/05 07:09:15;;;;;;;0.40;0.40;;;;;;;10.64;31.08;102019.38;5004868;28;20035;-60
2023/05/05 07:11:41;;;;;;;0.30;0.30;;;;;;;10.53;31.19;102026.09;5004975;28;20018;-61
2023/05/05 07:14:06;;;;;;;0.40;0.40;;;;;;;10.69;31.13;102023.78;5005017;28;20225;-60
2023/05/05 07:16:33;;;;;;;0.40;0.40;;;;;;;10.72;31.44;102036.84;5006652;28;20108;-61
2023/05/05 07:18:59;;;;;;;0.30;0.30;;;;;;;10.97;30.85;102025.13;5008496;28;20104;-61
2023/05/05 07:21:25;;;;;;;0.40;0.40;;;;;;;11.26;30.21;102021.22;5008635;28;20026;-60
2023/05/05 07:23:50;;;;;;;0.50;0.50;;;;;;;11.67;28.11;102016.56;5008457;28;20022;-61
2023/05/05 07:26:16;;;;;;;0.40;0.40;;;;;;;11.50;28.13;102009.44;5022700;23;20461;-61
2023/05/05 07:28:42;;;;;;;0.35;0.35;;;;;;;11.14;28.89;102032.28;5014486;23;20074;-75
2023/05/05 07:31:08;;;;;;;0.38;0.38;;;;;;;11.18;28.95;102028.91;5008323;28;20030;-77
2023/05/05 07:33:33;;;;;;;0.40;0.40;;;;;;;11.18;28.33;102020.22;5008230;28;20363;-74
2023/05/05 07:35:58;;;;;;;0.30;0.30;;;;;;;11.31;28.44;102014.34;5008125;28;20045;-74
2023/05/05 07:38:25;;;;;;;0.30;0.30;;;;;;;11.48;27.71;102022.41;5026220;23;20111;-77
2023/05/05 07:40:50;;;;;;;0.30;0.30;;;;;;;11.40;26.59;102024.91;4990329;28;20030;-73
2023/05/05 07:43:16;;;;;;;0.40;0.40;;;;;;;10.84;27.33;102026.66;5007974;28;20214;-76
2023/05/05 07:46:07;;;;;;;0.90;0.77;;;;;;;10.99;27.32;102031.19;5018811;23;20076;-61
2023/05/05 07:48:32;;;;;;;0.30;0.30;;;;;;;10.99;27.83;102026.00;5017034;23;20109;-62
2023/05/05 07:50:58;;;;;;;0.88;0.88;;;;;;;11.28;26.85;102025.59;5014790;23;20042;-77
2023/05/05 07:56:07;;;;;;;0.88;0.88;;;;;;;11.14;27.33;102017.59;5046425;23;20240;-61
2023/05/05 07:58:51;;;;;;;0.60;0.60;;;;;;;12.02;25.56;102008.31;5020929;23;20056;-64
2023/05/05 08:01:17;;;;;;;0.40;0.40;;;;;;;12.04;24.79;101998.81;5004387;23;20046;-76
2023/05/05 08:03:42;;;;;;;0.40;0.40;;;;;;;11.55;25.32;102007.75;5007781;28;20018;-77
2023/05/05 08:06:08;;;;;;;0.40;0.40;;;;;;;11.46;25.56;102013.69;4990245;28;20026;-77
2023/05/05 08:08:34;;;;;;;0.40;0.40;;;;;;;11.24;26.22;102018.59;5007845;28;20019;-76
2023/05/05 08:11:00;;;;;;;0.40;0.40;;;;;;;11.31;26.43;102031.69;5007676;28;20088;-73
2023/05/05 08:13:26;;;;;;;1.00;0.98;;;;;;;11.45;26.37;102050.09;5007316;28;20030;-73
2023/05/05 08:15:52;;;;;;;0.30;0.30;;;;;;;11.68;25.74;102041.75;5007475;28;20027;-75
2023/05/05 08:18:18;;;;;;;0.30;0.30;;;;;;;11.70;26.14;102012.28;5007640;28;20026;-74
2023/05/05 08:20:43;;;;;;;0.40;0.40;;;;;;;12.26;24.63;102040.72;5007501;28;20026;-75
2023/05/05 08:23:09;;;;;;;0.40;0.40;;;;;;;12.27;24.03;102037.25;4989887;28;20046;-76
2023/05/05 08:25:34;;;;;;;3.78;1.50;;;;;;;11.68;24.97;102000.13;4989738;28;20114;-75
2023/05/05 08:28:00;;;;;;;0.35;0.35;;;;;;;11.61;25.52;102010.41;4988663;28;20447;-75
2023/05/05 08:30:26;;;;;;;0.40;0.40;;;;;;;12.28;24.71;102002.56;5029475;23;20057;-61
2023/05/05 08:32:51;;;;;;;0.38;0.38;;;;;;;12.46;23.67;102017.47;5013745;23;20427;-73
2023/05/05 08:35:16;;;;;;;0.40;0.40;;;;;;;12.23;24.28;102001.63;5007037;28;20426;-74
2023/05/05 08:37:42;;;;;;;0.30;0.30;;;;;;;12.30;24.08;102006.03;5006996;28;20018;-74
2023/05/05 08:42:33;;;;;;;0.30;0.30;;;;;;;12.54;24.39;101994.09;5008843;23;20114;-60
2023/05/05 08:44:59;;;;;;;0.43;0.43;;;;;;;12.87;23.79;102005.69;4989666;28;20033;-62
2023/05/05 08:47:24;;;;;;;0.40;0.40;;;;;;;13.14;23.81;102009.34;5006992;28;20026;-60
2023/05/05 08:49:52;;;;;;;0.30;0.30;;;;;;;13.16;23.84;102006.75;5006803;28;20030;-62
2023/05/05 08:52:22;;;;;;;0.40;0.40;;;;;;;13.72;22.30;101995.78;4989512;28;20030;-61
2023/05/05 08:54:58;;;;;;;0.30;0.30;;;;;;;12.87;23.18;101989.16;5006826;28;20030;-61
2023/05/05 08:57:31;;;;;;;0.38;0.38;;;;;;;12.88;23.90;101990.91;5006691;28;20029;-62
2023/05/05 08:59:58;;;;;;;0.30;0.30;;;;;;;13.13;22.93;102015.41;5006933;28;20045;-60
2023/05/05 09:02:27;;;;;;;0.30;0.30;;;;;;;13.12;22.79;101998.03;5013030;23;20046;-72
2023/05/05 09:04:52;;;;;;;0.35;0.35;;;;;;;13.23;22.50;102008.53;5006675;28;20019;-72
2023/05/05 09:07:18;;;;;;;0.30;0.30;;;;;;;13.05;23.16;101977.13;5006451;28;20041;-71
2023/05/05 09:09:44;;;;;;;0.30;0.30;;;;;;;13.53;22.68;101977.41;5006356;28;20033;-71
2023/05/05 09:12:10;;;;;;;0.30;0.30;;;;;;;13.77;21.02;101967.06;5015009;23;20105;-59
2023/05/05 09:14:35;;;;;;;0.30;0.30;;;;;;;13.26;21.82;101999.84;5004557;28;20085;-60
2023/05/05 09:17:01;;;;;;;0.30;0.30;;;;;;;13.17;22.36;101979.81;5006550;28;20026;-60
2023/05/05 09:19:27;;;;;;;0.30;0.30;;;;;;;13.42;21.50;101984.28;5006382;28;20065;-60
2023/05/05 09:21:53;;;;;;;0.30;0.30;;;;;;;13.46;21.83;101993.88;5006531;28;20061;-61
2023/05/05 09:24:19;;;;;;;0.30;0.30;;;;;;;13.74;21.88;101994.91;5006620;28;20029;-61
2023/05/05 09:26:46;;;;;;;0.30;0.30;;;;;;;13.83;22.35;101995.81;5006306;28;20030;-61
2023/05/05 09:29:22;;;;;;;0.93;0.93;;;;;;;13.91;22.88;101982.78;5005996;28;20077;-60
2023/05/05 09:32:09;;;;;;;0.85;0.85;;;;;;;14.63;21.43;101994.22;5006482;28;20376;-61
2023/05/05 09:34:36;;;;;;;0.30;0.30;;;;;;;15.15;20.91;101974.13;5022767;23;20070;-60
2023/05/05 09:37:02;;;;;;;0.30;0.30;;;;;;;14.75;20.54;102007.28;5006216;28;20450;-60
2023/05/05 09:39:27;;;;;;;0.30;0.30;;;;;;;14.31;20.80;101963.69;5005782;28;20077;-59
2023/05/05 09:41:53;;;;;;;0.30;0.30;;;;;;;14.02;20.95;101991.50;5005965;28;20429;-60
2023/05/05 09:44:33;;;;;;;0.30;0.30;;;;;;;13.55;21.59;101993.94;5019613;23;20129;-61
2023/05/05 09:46:59;;;;;;;0.30;0.30;;;;;;;13.79;22.36;102000.13;4988028;23;20043;-75
2023/05/05 09:49:25;;;;;;;0.30;0.30;;;;;;;14.57;21.09;101971.53;4995179;23;20050;-64
2023/05/05 09:51:52;;;;;;;0.30;0.30;;;;;;;14.46;21.24;101997.69;5012376;23;20041;-75
2023/05/05 09:54:28;;;;;;;0.30;0.30;;;;;;;14.88;20.57;101978.53;5005667;28;20018;-76
2023/05/05 09:56:56;;;;;;;0.30;0.30;;;;;;;14.99;21.05;101978.50;5012467;23;20100;-60
2023/05/05 09:59:22;;;;;;;0.30;0.30;;;;;;;15.05;20.44;101986.34;5012081;23;20058;-74
2023/05/05 10:01:49;;;;;;;0.30;0.30;;;;;;;15.23;20.36;101990.69;5011828;23;20545;-63
2023/05/05 10:04:24;;;;;;;0.30;0.30;;;;;;;14.85;20.58;101997.72;5012169;23;20058;-73
2023/05/05 10:06:49;;;;;;;0.30;0.30;;;;;;;15.25;19.71;101972.34;5005716;23;20410;-60
2023/05/05 10:09:15;;;;;;;0.30;0.30;;;;;;;15.06;19.65;101959.34;5005729;28;20562;-60
2023/05/05 10:11:41;;;;;;;0.30;0.30;;;;;;;14.35;20.97;101982.00;5005540;28;20033;-60
2023/05/05 10:14:07;;;;;;;0.30;0.30;;;;;;;14.57;21.15;101983.75;5005445;28;20082;-61
2023/05/05 10:16:34;;;;;;;0.30;0.30;;;;;;;14.63;20.73;101970.69;5018986;23;20050;-60
2023/05/05 10:19:01;;;;;;;0.30;0.30;;;;;;;14.80;20.56;101965.47;5005705;28;20026;-60
2023/05/05 10:21:32;;;;;;;0.30;0.30;;;;;;;15.04;20.19;101968.91;5005192;28;20023;-60
2023/05/05 10:24:10;;;;;;;0.30;0.30;;;;;;;15.10;19.95;101955.81;5005427;28;20034;-60
2023/05/05 10:26:41;;;;;;;0.30;0.30;;;;;;;15.00;19.44;101961.94;5005447;28;20057;-60
2023/05/05 10:29:22;;;;;;;0.30;0.30;;;;;;;14.92;20.19;101961.97;5005081;28;20034;-60
2023/05/05 10:31:52;;;;;;;0.30;0.30;;;;;;;14.94;19.51;101965.44;5005356;28;20034;-60
2023/05/05 10:34:39;;;;;;;0.30;0.30;;;;;;;14.68;19.91;101965.47;5005383;28;20393;-60
2023/05/05 10:37:06;;;;;;;0.30;0.30;;;;;;;14.71;19.91;101974.16;5011937;23;20057;-73
2023/05/05 10:39:33;;;;;;;0.30;0.30;;;;;;;14.46;19.99;101970.66;5005218;28;20027;-74
2023/05/05 10:42:02;;;;;;;0.30;0.30;;;;;;;14.27;20.45;101948.88;5005082;28;20447;-74
2023/05/05 10:44:32;;;;;;;0.30;0.30;;;;;;;14.91;20.23;101952.38;5004790;28;20095;-74
2023/05/05 10:46:58;;;;;;;0.63;0.63;;;;;;;15.22;19.35;101948.81;5005120;28;20025;-74
2023/05/05 10:49:44;;;;;;;0.30;0.30;;;;;;;15.15;19.81;101944.47;5004833;28;20027;-74
2023/05/05 10:52:24;;;;;;;0.30;0.30;;;;;;;15.10;18.91;101921.81;4990386;28;20030;-75
2023/05/05 10:55:12;;;;;;;0.30;0.30;;;;;;;14.73;19.83;101934.94;5008975;28;20112;-74
2023/05/05 10:57:43;;;;;;;0.40;0.40;;;;;;;14.62;19.73;101954.13;5008521;28;20022;-74
2023/05/05 11:00:09;;;;;;;0.30;0.30;;;;;;;13.97;19.59;101933.19;5009236;28;20497;-74
2023/05/05 11:02:36;;;;;;;0.30;0.30;;;;;;;13.67;20.58;101934.84;5008930;28;20033;-76
2023/05/05 11:05:20;;;;;;;0.38;0.38;;;;;;;13.41;20.84;101953.84;4991420;28;20072;-74
2023/05/05 11:07:50;;;;;;;0.30;0.30;;;;;;;12.85;21.19;101937.03;4991463;28;20037;-75
2023/05/05 11:10:22;;;;;;;0.30;0.30;;;;;;;12.37;21.33;101919.31;5008538;28;20074;-73
2023/05/05 11:13:02;;;;;;;0.40;0.40;;;;;;;12.13;21.61;101930.34;5008674;28;20029;-73
2023/05/05 11:15:27;;;;;;;0.30;0.30;;;;;;;12.08;21.40;101934.63;5007489;28;20035;-77
2023/05/05 11:17:57;;;;;;;0.30;0.30;;;;;;;11.59;21.55;101921.09;5013329;23;20058;-60
2023/05/05 11:20:35;;;;;;;0.38;0.38;;;;;;;11.09;22.41;101930.88;5018673;23;20055;-75
2023/05/05 11:23:03;;;;;;;0.60;0.60;;;;;;;10.69;23.18;101927.69;5008541;28;20019;-72
2023/05/05 11:25:40;;;;;;;0.40;0.40;;;;;;;10.75;23.30;101925.19;4990762;28;20026;-77
2023/05/05 11:28:07;;;;;;;0.40;0.40;;;;;;;10.95;22.66;101925.47;4990536;28;20040;-76
2023/05/05 11:30:33;;;;;;;0.40;0.40;;;;;;;10.71;22.86;101925.97;4990758;28;20030;-72
2023/05/05 11:33:24;;;;;;;0.38;0.38;;;;;;;10.45;23.68;101927.25;5008161;28;20101;-72
2023/05/05 11:35:57;;;;;;;0.40;0.40;;;;;;;10.60;23.49;101912.81;4990488;28;20026;-73
2023/05/05 11:39:04;;;;;;;0.40;0.40;;;;;;;10.62;23.63;101942.28;5008385;28;20037;-75
2023/05/05 11:41:32;;;;;;;0.40;0.40;;;;;;;10.48;24.09;101922.16;4993936;23;20058;-60
2023/05/05 11:44:10;;;;;;;0.47;0.47;;;;;;;10.58;24.10;101915.38;5007921;28;20121;-60
2023/05/05 11:46:36;;;;;;;0.40;0.40;;;;;;;10.47;24.34;101894.44;5007953;28;20033;-60
2023/05/05 11:49:02;;;;;;;0.40;0.40;;;;;;;10.60;24.28;101899.84;5019109;23;20047;-73
2023/05/05 11:51:27;;;;;;;0.40;0.40;;;;;;;10.62;24.35;101892.94;5008047;28;20081;-72
2023/05/05 11:53:53;;;;;;;0.40;0.40;;;;;;;10.70;24.53;101890.47;4990348;28;20018;-72
2023/05/05 11:56:20;;;;;;;0.40;0.40;;;;;;;10.86;24.12;101913.22;5007910;28;20033;-74
2023/05/05 12:01:15;;;;;;;0.40;0.40;;;;;;;10.95;23.73;101890.81;4985943;28;20055;-63